Edzard Schulte — 2CVX9 — position and weather

sailwx.info

Track history (hours):
 
Tides and Currents Weather Stations Pressure Air Temp Water Temp Dewpoint Dewpoint Depression Visibility Wind Speed Wind Dir Waves Ship Positions

Edzard Schulte

Last reported at 2015-May-28 07:33 UTC. Time now 2015-May-30 00:31 UTC.
Position N 40°24' W 009°57'.

Length 145 m; draft 8.3 m.

Type: Tanker. MMSI: 235076245.

Date/timePositionNaut miles runAvg speedWind from/ knotsBaromVisibWave heightAir tempDewpointWater temp
2015-May-28 07:33N 40°24' W 009°57'1510.7
2015-May-28 06:11N 40°09' W 009°57'710.5
2015-May-28 05:32N 40°02' W 009°57'1110.9
2015-May-28 04:34N 39°51' W 009°57'1111.1
2015-May-28 03:33N 39°40' W 009°57'1111.1
2015-May-28 02:33N 39°29' W 009°57'1111.1
2015-May-28 01:33N 39°18' W 009°57'1111.3
2015-May-28 00:33N 39°07' W 009°57'1111.2
2015-May-27 23:33N 38°55' W 009°57'1111.0
2015-May-27 22:33N 38°44' W 009°57'1110.7
2015-May-27 21:33N 38°34' W 009°55'1110.6
2015-May-27 20:33N 38°24' W 009°52'1010.3
2015-May-27 19:33N 38°13' W 009°49'1111.1
2015-May-27 18:33N 38°03' W 009°45'1111.2
2015-May-27 17:33N 37°52' W 009°42'1111.2
2015-May-27 16:33N 37°41' W 009°39'1111.3
2015-May-27 15:33N 37°30' W 009°36'1111.1
2015-May-27 14:33N 37°19' W 009°33'1111.3
2015-May-27 13:33N 37°08' W 009°30'1211.6
2015-May-27 12:33N 36°57' W 009°26'1111.4
2015-May-27 11:33N 36°46' W 009°20'1211.5
2015-May-27 10:30N 36°39' W 009°08'1212.0
2015-May-27 09:33N 36°37' W 008°54'2412.1
2015-May-27 07:32N 36°32' W 008°24'14111.8
2015-May-26 19:33N 35°58' W 005°34'1110.7
2015-May-26 18:33N 36°01' W 005°22'13611.9
2015-May-26 07:08N 36°23' W 002°35'712.7
2015-May-26 06:33N 36°23' W 002°26'4212.2
2015-May-26 03:08N 36°50' W 001°46'5811.7
2015-May-25 22:09N 37°34' W 000°58'3 0.1
2015-May-24 13:06N 37°34' W 001°01'0 0.0
2015-May-24 09:12N 37°34' W 001°02'0 0.0
2015-May-24 06:19N 37°34' W 001°02'0 0.0
2015-May-24 05:25N 37°34' W 001°02'0 0.0
2015-May-24 02:13N 37°34' W 001°02'0 0.0
2015-May-24 01:25N 37°34' W 001°02'0 0.0
2015-May-23 20:25N 37°34' W 001°02'0 0.0
2015-May-23 17:25N 37°34' W 001°02'0 0.0
2015-May-23 08:12N 37°34' W 001°02'0 0.0
2015-May-23 07:18N 37°34' W 001°02'0 0.0
2015-May-23 05:12N 37°34' W 001°02'0 0.0
2015-May-23 04:25N 37°34' W 001°02'0 0.0
2015-May-23 03:25N 37°34' W 001°02'0 0.0
2015-May-23 02:31N 37°34' W 001°02'0 0.0
2015-May-23 01:25N 37°34' W 001°02'0 0.0
2015-May-23 00:12N 37°34' W 001°02'0 0.0
2015-May-22 22:24N 37°34' W 001°02'0 0.0
2015-May-22 21:24N 37°34' W 001°02'0 0.0
2015-May-22 20:31N 37°34' W 001°02'0 0.0
2015-May-22 17:19N 37°34' W 001°02'1 0.1
2015-May-22 07:10N 37°33' W 001°02'2 2.9
2015-May-22 06:33N 37°31' W 001°01'59 9.8
2015-May-22 00:33N 36°45' W 001°48'2210.0
2015-May-21 22:23N 36°27' W 002°02'1110.0
2015-May-21 21:17N 36°17' W 002°09'910.4
2015-May-21 20:25N 36°18' W 002°20'910.3
2015-May-21 19:33N 36°18' W 002°32'1110.4
2015-May-21 18:32N 36°18' W 002°45'11911.6
2015-May-21 08:16N 36°02' W 005°11'1013.5
2015-May-21 07:33N 35°59' W 005°22'17212.1
2015-May-20 17:21N 36°28' W 008°53'1011.8
2015-May-20 16:33N 36°30' W 009°04'3611.1
2015-May-20 13:15N 36°56' W 009°36'1112.5
2015-May-20 12:24N 37°07' W 009°39'2812.6
2015-May-20 10:08N 37°34' W 009°47'812.5
2015-May-20 09:32N 37°42' W 009°49'1512.7
2015-May-20 08:21N 37°56' W 009°53'1012.6
2015-May-20 07:31N 38°06' W 009°56'1212.5
2015-May-20 06:33N 38°18' W 009°60'1212.4
2015-May-20 05:33N 38°30' W 010°04'1312.4
2015-May-20 04:33N 38°42' W 010°07'1312.6
2015-May-20 03:33N 38°55' W 010°08'1212.2
2015-May-20 02:33N 39°07' W 010°08'  
Track history (hours):
 
Tides and Currents Weather Stations Pressure Air Temp Water Temp Dewpoint Dewpoint Depression Visibility Wind Speed Wind Dir Waves Ship Positions

Edzard Schulte

Last reported at 2015-May-28 07:33 UTC. Time now 2015-May-30 00:31 UTC.
Position N 40°24' W 009°57'.

Length 145 m; draft 8.3 m.

Type: Tanker. MMSI: 235076245.

Date/timePositionNaut miles runAvg speedWind from/ knotsBaromVisibWave heightAir tempDewpointWater temp
2015-May-28 07:33N 40°24' W 009°57'1510.7
2015-May-28 06:11N 40°09' W 009°57'710.5
2015-May-28 05:32N 40°02' W 009°57'1110.9
2015-May-28 04:34N 39°51' W 009°57'1111.1
2015-May-28 03:33N 39°40' W 009°57'1111.1
2015-May-28 02:33N 39°29' W 009°57'1111.1
2015-May-28 01:33N 39°18' W 009°57'1111.3
2015-May-28 00:33N 39°07' W 009°57'1111.2
2015-May-27 23:33N 38°55' W 009°57'1111.0
2015-May-27 22:33N 38°44' W 009°57'1110.7
2015-May-27 21:33N 38°34' W 009°55'1110.6
2015-May-27 20:33N 38°24' W 009°52'1010.3
2015-May-27 19:33N 38°13' W 009°49'1111.1
2015-May-27 18:33N 38°03' W 009°45'1111.2
2015-May-27 17:33N 37°52' W 009°42'1111.2
2015-May-27 16:33N 37°41' W 009°39'1111.3
2015-May-27 15:33N 37°30' W 009°36'1111.1
2015-May-27 14:33N 37°19' W 009°33'1111.3
2015-May-27 13:33N 37°08' W 009°30'1211.6
2015-May-27 12:33N 36°57' W 009°26'1111.4
2015-May-27 11:33N 36°46' W 009°20'1211.5
2015-May-27 10:30N 36°39' W 009°08'1212.0
2015-May-27 09:33N 36°37' W 008°54'2412.1
2015-May-27 07:32N 36°32' W 008°24'14111.8
2015-May-26 19:33N 35°58' W 005°34'1110.7
2015-May-26 18:33N 36°01' W 005°22'13611.9
2015-May-26 07:08N 36°23' W 002°35'712.7
2015-May-26 06:33N 36°23' W 002°26'4212.2
2015-May-26 03:08N 36°50' W 001°46'5811.7
2015-May-25 22:09N 37°34' W 000°58'3 0.1
2015-May-24 13:06N 37°34' W 001°01'0 0.0
2015-May-24 09:12N 37°34' W 001°02'0 0.0
2015-May-24 06:19N 37°34' W 001°02'0 0.0
2015-May-24 05:25N 37°34' W 001°02'0 0.0
2015-May-24 02:13N 37°34' W 001°02'0 0.0
2015-May-24 01:25N 37°34' W 001°02'0 0.0
2015-May-23 20:25N 37°34' W 001°02'0 0.0
2015-May-23 17:25N 37°34' W 001°02'0 0.0
2015-May-23 08:12N 37°34' W 001°02'0 0.0
2015-May-23 07:18N 37°34' W 001°02'0 0.0
2015-May-23 05:12N 37°34' W 001°02'0 0.0
2015-May-23 04:25N 37°34' W 001°02'0 0.0
2015-May-23 03:25N 37°34' W 001°02'0 0.0
2015-May-23 02:31N 37°34' W 001°02'0 0.0
2015-May-23 01:25N 37°34' W 001°02'0 0.0
2015-May-23 00:12N 37°34' W 001°02'0 0.0
2015-May-22 22:24N 37°34' W 001°02'0 0.0
2015-May-22 21:24N 37°34' W 001°02'0 0.0
2015-May-22 20:31N 37°34' W 001°02'0 0.0
2015-May-22 17:19N 37°34' W 001°02'1 0.1
2015-May-22 07:10N 37°33' W 001°02'2 2.9
2015-May-22 06:33N 37°31' W 001°01'59 9.8
2015-May-22 00:33N 36°45' W 001°48'2210.0
2015-May-21 22:23N 36°27' W 002°02'1110.0
2015-May-21 21:17N 36°17' W 002°09'910.4
2015-May-21 20:25N 36°18' W 002°20'910.3
2015-May-21 19:33N 36°18' W 002°32'1110.4
2015-May-21 18:32N 36°18' W 002°45'11911.6
2015-May-21 08:16N 36°02' W 005°11'1013.5
2015-May-21 07:33N 35°59' W 005°22'17212.1
2015-May-20 17:21N 36°28' W 008°53'1011.8
2015-May-20 16:33N 36°30' W 009°04'3611.1
2015-May-20 13:15N 36°56' W 009°36'1112.5
2015-May-20 12:24N 37°07' W 009°39'2812.6
2015-May-20 10:08N 37°34' W 009°47'812.5
2015-May-20 09:32N 37°42' W 009°49'1512.7
2015-May-20 08:21N 37°56' W 009°53'1012.6
2015-May-20 07:31N 38°06' W 009°56'1212.5
2015-May-20 06:33N 38°18' W 009°60'1212.4
2015-May-20 05:33N 38°30' W 010°04'1312.4
2015-May-20 04:33N 38°42' W 010°07'1312.6
2015-May-20 03:33N 38°55' W 010°08'1212.2
2015-May-20 02:33N 39°07' W 010°08'  

Dump ship's entire track history